Time;durP1;ratioP1;P1;durP2;ratioP2;P2;SDS_P1;SDS_P2;PMS_P1;PMS_P2;Temp;Humidity;BMP_temperature;BMP_pressure;BME280_temperature;BME280_humidity;BME280_pressure;Samples;Min_cycle;Max_cycle;Signal;HPM_P1;HPM_P2
2023/01/15 00:02:07;;;;;;;2.05;1.80;;;9.70;96.30;;;9.01;89.72;98942.56;5028147;28;20421;-72
2023/01/15 00:04:37;;;;;;;4.97;2.40;;;9.80;96.10;;;9.03;89.34;98980.59;5028173;28;20427;-73
2023/01/15 00:07:05;;;;;;;4.85;1.70;;;9.70;96.10;;;8.69;87.66;98967.97;5016035;28;20658;-72
2023/01/15 00:09:33;;;;;;;3.20;1.80;;;9.50;95.00;;;8.55;88.18;98976.88;5008413;28;20412;-73
2023/01/15 00:12:01;;;;;;;3.55;1.70;;;9.30;95.10;;;8.46;88.36;98997.47;5010680;28;20412;-72
2023/01/15 00:14:29;;;;;;;3.25;1.70;;;9.20;95.40;;;8.46;87.74;99004.69;5012379;28;20434;-72
2023/01/15 00:16:57;;;;;;;4.57;1.70;;;9.20;95.40;;;8.23;87.71;99010.13;5011583;28;20415;-72
2023/01/15 00:19:25;;;;;;;3.60;1.80;;;9.00;95.00;;;8.18;87.76;99009.88;5012254;28;20416;-72
2023/01/15 00:21:55;;;;;;;2.40;1.80;;;9.00;95.20;;;8.26;87.41;98999.06;5012128;28;20436;-72
2023/01/15 00:29:56;;;;;;;1.92;1.40;;;8.90;95.60;;;7.96;85.61;99008.16;5011596;28;20849;-72
2023/01/15 00:32:26;;;;;;;3.65;1.70;;;8.80;94.20;;;7.91;87.01;99008.69;5007852;28;20982;-72
2023/01/15 00:34:54;;;;;;;3.63;1.83;;;8.70;94.40;;;7.83;85.71;98998.16;4992073;28;20891;-72
2023/01/15 00:37:24;;;;;;;2.10;1.45;;;8.60;94.40;;;7.81;86.18;99002.03;4991808;28;20910;-72
2023/01/15 00:39:52;;;;;;;2.95;1.52;;;8.60;94.20;;;7.75;85.37;99037.38;4992295;28;20414;-72
2023/01/15 00:42:20;;;;;;;3.03;1.30;;;8.50;94.00;;;7.65;85.59;99035.81;4991917;28;20930;-72
2023/01/15 00:44:48;;;;;;;2.45;1.63;;;8.50;93.80;;;7.63;86.06;99035.19;4991841;28;20434;-72
2023/01/15 00:47:16;;;;;;;3.20;1.33;;;8.40;94.10;;;7.55;84.20;99037.91;5029613;28;20924;-72
2023/01/15 00:49:45;;;;;;;2.75;1.40;;;8.30;93.40;;;7.40;83.85;99053.03;5031413;28;21059;-72
2023/01/15 00:52:13;;;;;;;3.30;1.63;;;8.20;93.00;;;7.38;83.10;99047.06;5031194;28;20485;-72
2023/01/15 00:54:43;;;;;;;3.85;1.70;;;8.20;92.90;;;7.23;83.55;99059.50;5018439;28;20412;-72
2023/01/15 00:57:11;;;;;;;3.83;1.50;;;8.00;92.70;;;7.07;83.30;99059.66;5011444;28;20586;-72
2023/01/15 00:59:39;;;;;;;2.72;1.20;;;7.90;92.60;;;7.14;81.97;99065.91;5011491;28;20409;-72
2023/01/15 01:02:07;;;;;;;3.60;1.30;;;7.90;92.00;;;7.05;82.84;99073.13;5011297;28;20416;-72
2023/01/15 01:04:35;;;;;;;4.85;2.10;;;7.90;92.30;;;6.87;83.33;99077.09;5011361;28;20443;-72
2023/01/15 01:07:04;;;;;;;3.78;1.42;;;7.70;92.60;;;6.94;83.24;99080.72;5011193;28;20781;-72
2023/01/15 01:09:32;;;;;;;4.70;1.60;;;7.70;92.80;;;6.89;83.37;99097.19;5011333;28;20404;-72
2023/01/15 01:12:02;;;;;;;4.45;1.50;;;7.70;92.80;;;6.84;82.67;99101.41;5011226;28;20773;-72
2023/01/15 01:14:30;;;;;;;5.00;1.92;;;7.60;92.40;;;6.65;82.01;99100.00;5011440;28;20401;-72
2023/01/15 01:16:58;;;;;;;3.20;1.63;;;7.50;92.00;;;6.55;82.30;99107.38;5010861;28;20408;-72
2023/01/15 01:19:27;;;;;;;2.95;1.38;;;7.40;92.20;;;6.50;83.21;99115.91;5011305;28;20413;-72
2023/01/15 01:21:55;;;;;;;2.40;1.25;;;7.30;92.60;;;6.44;82.13;99116.56;5010770;28;20404;-72
2023/01/15 01:24:24;;;;;;;2.43;1.20;;;7.30;92.20;;;6.47;82.86;99110.91;5010561;28;20428;-72
2023/01/15 01:26:52;;;;;;;2.05;1.17;;;7.30;92.50;;;6.36;81.25;99123.75;5010558;28;20420;-72
2023/01/15 01:29:24;;;;;;;2.40;1.02;;;7.20;91.50;;;6.30;82.06;99129.78;5010795;28;20436;-72
2023/01/15 01:31:52;;;;;;;2.07;1.00;;;7.10;92.30;;;6.26;81.90;99116.00;5010739;28;20755;-72
2023/01/15 01:34:20;;;;;;;2.60;1.10;;;7.10;91.80;;;6.19;80.97;99117.69;5010689;28;20412;-72
2023/01/15 01:36:48;;;;;;;3.25;1.30;;;7.10;91.50;;;6.29;80.81;99128.13;5010567;28;20471;-72
2023/01/15 01:39:19;;;;;;;2.17;1.03;;;7.10;91.50;;;6.23;80.85;99132.28;5010534;28;20408;-72
2023/01/15 01:41:48;;;;;;;3.47;1.10;;;7.10;91.60;;;6.21;81.13;99142.25;5010461;28;20409;-72
2023/01/15 01:45:16;;;;;;;3.03;1.40;;;7.00;91.50;;;6.13;80.75;99152.09;5009932;28;20450;-72
2023/01/15 01:47:46;;;;;;;2.88;1.02;;;7.00;91.40;;;6.03;80.78;99152.25;5010158;28;20909;-72
2023/01/15 01:50:15;;;;;;;2.40;1.00;;;6.90;91.30;;;5.98;81.83;99146.63;5026905;28;20421;-72
2023/01/15 01:52:52;;;;;;;1.95;1.05;;;6.80;91.60;;;6.04;81.10;99145.97;5030267;28;20411;-72
2023/01/15 01:55:24;;;;;;;4.27;1.50;;;6.90;91.90;;;5.95;81.69;99157.59;5012043;28;20423;-72
2023/01/15 01:57:58;;;;;;;2.40;1.05;;;6.80;91.60;;;5.94;81.15;99145.31;5010023;28;20413;-72
2023/01/15 02:00:30;;;;;;;1.40;0.88;;;6.80;91.60;;;5.84;80.84;99144.63;5010125;28;20491;-72
2023/01/15 02:03:02;;;;;;;1.55;1.10;;;6.70;91.30;;;5.78;81.22;99142.66;5010319;28;20448;-72
2023/01/15 02:05:34;;;;;;;2.08;0.95;;;6.60;91.70;;;5.73;81.60;99155.59;5009884;28;20421;-72
2023/01/15 02:08:02;;;;;;;2.42;1.10;;;6.60;91.70;;;5.70;81.89;99147.97;5010198;28;20412;-72
2023/01/15 02:10:30;;;;;;;2.47;1.20;;;6.60;91.60;;;5.63;80.57;99151.31;5010154;28;20487;-72
2023/01/15 02:13:05;;;;;;;3.70;1.25;;;6.50;91.10;;;5.56;80.77;99146.84;5009889;28;20417;-72
2023/01/15 02:15:40;;;;;;;2.65;1.20;;;6.40;91.40;;;5.58;80.96;99158.94;5009828;28;20415;-72
2023/01/15 02:18:22;;;;;;;2.00;1.20;;;6.50;91.50;;;5.47;80.92;99159.28;5010079;28;20467;-72
2023/01/15 02:20:58;;;;;;;1.77;0.90;;;6.40;91.20;;;5.41;80.26;99159.13;5009754;28;20417;-72
2023/01/15 02:24:06;;;;;;;2.05;0.98;;;6.30;91.10;;;5.46;81.01;99154.97;5009766;28;20401;-72
2023/01/15 02:27:10;;;;;;;2.67;1.20;;;6.30;91.30;;;5.37;80.71;99163.09;5009559;28;20444;-72
2023/01/15 02:29:51;;;;;;;2.00;0.90;;;6.30;91.20;;;5.37;80.44;99157.78;5009548;28;20412;-72
2023/01/15 02:32:31;;;;;;;1.80;0.82;;;6.30;91.20;;;5.33;80.91;99167.06;5009823;28;20408;-72
2023/01/15 02:35:07;;;;;;;1.63;0.90;;;6.30;91.40;;;5.37;81.46;99163.94;5008727;28;20873;-72
2023/01/15 02:37:41;;;;;;;1.48;0.90;;;6.20;91.70;;;5.34;81.13;99158.94;5009396;28;21131;-72
2023/01/15 02:40:13;;;;;;;2.77;1.10;;;6.30;91.60;;;5.36;81.13;99162.28;5009451;28;20982;-72
2023/01/15 02:42:46;;;;;;;1.25;0.90;;;6.20;91.40;;;5.31;80.98;99147.84;5009571;28;20936;-72
2023/01/15 02:45:22;;;;;;;2.42;0.95;;;6.20;91.20;;;5.35;81.28;99142.03;5009183;28;20436;-72
2023/01/15 02:47:55;;;;;;;1.50;0.80;;;6.20;91.60;;;5.36;80.67;99149.00;5009556;28;20508;-72
2023/01/15 02:50:32;;;;;;;1.77;0.88;;;6.20;91.20;;;5.29;80.09;99161.28;5009774;28;20413;-72
2023/01/15 02:53:06;;;;;;;1.55;0.93;;;6.20;90.90;;;5.25;79.80;99165.25;5009462;28;20743;-72
2023/01/15 02:55:43;;;;;;;2.30;1.00;;;6.20;90.80;;;5.27;79.43;99152.66;4989776;28;20403;-72
2023/01/15 02:58:20;;;;;;;1.95;0.95;;;6.20;90.80;;;5.26;79.25;99135.06;4989915;28;20407;-72
2023/01/15 03:00:54;;;;;;;1.55;1.00;;;6.20;90.70;;;5.23;79.84;99126.63;4990308;28;20414;-72
2023/01/15 03:03:33;;;;;;;2.08;1.10;;;6.10;90.70;;;5.22;79.98;99120.47;4989916;28;20489;-72
2023/01/15 03:06:12;;;;;;;1.97;0.93;;;6.10;90.90;;;5.21;80.21;99108.19;4989527;28;20550;-72
2023/01/15 03:08:41;;;;;;;2.00;0.80;;;6.10;90.80;;;5.26;79.78;99103.22;4989511;28;20414;-72
2023/01/15 03:11:12;;;;;;;1.33;0.70;;;6.10;90.80;;;5.32;78.91;99118.47;4989782;28;20794;-72
2023/01/15 03:13:51;;;;;;;1.42;0.80;;;6.20;90.40;;;5.29;78.60;99113.50;4989619;28;20410;-72
2023/01/15 03:16:36;;;;;;;1.77;1.00;;;6.20;90.30;;;5.26;77.44;99111.19;4989345;28;20424;-72
2023/01/15 03:19:23;;;;;;;2.42;1.08;;;6.10;89.90;;;5.19;78.94;99118.16;4989257;28;20410;-72
2023/01/15 03:21:59;;;;;;;1.05;0.80;;;6.10;90.20;;;5.23;78.75;99114.19;4989111;28;20898;-72
2023/01/15 03:24:36;;;;;;;3.08;0.90;;;6.10;90.30;;;5.18;78.25;99115.66;4989225;28;20410;-72
2023/01/15 03:27:04;;;;;;;2.00;0.80;;;6.10;90.10;;;5.18;78.84;99113.84;4988815;28;20418;-72
2023/01/15 03:29:39;;;;;;;1.73;1.00;;;6.10;90.20;;;5.19;78.07;99115.50;4989244;28;20418;-72
2023/01/15 03:32:08;;;;;;;2.08;1.08;;;6.10;90.00;;;5.21;78.32;99105.53;4989002;28;20414;-72
2023/01/15 03:34:44;;;;;;;3.38;1.00;;;6.10;90.00;;;5.25;79.78;99106.88;4989023;28;20469;-72
2023/01/15 03:37:12;;;;;;;2.50;1.10;;;6.10;90.70;;;5.15;78.31;99094.75;4988518;28;20425;-72
2023/01/15 03:39:42;;;;;;;2.20;1.10;;;6.10;90.10;;;5.11;79.95;99097.75;4988876;28;20572;-72
2023/01/15 03:42:24;;;;;;;2.63;1.17;;;6.00;91.00;;;5.12;79.61;99098.59;4988475;28;20993;-72
2023/01/15 03:45:04;;;;;;;2.20;1.15;;;6.10;90.80;;;5.08;80.12;99094.59;4988196;28;20406;-72
2023/01/15 03:47:46;;;;;;;2.45;1.35;;;5.90;90.80;;;5.10;79.98;99103.25;4988553;28;20417;-72
2023/01/15 03:50:24;;;;;;;2.03;1.10;;;6.00;90.90;;;5.08;80.32;99105.22;4988622;28;20410;-72
2023/01/15 03:53:06;;;;;;;2.33;1.30;;;6.00;91.10;;;5.10;80.35;99106.69;4988706;28;20883;-72
2023/01/15 03:55:45;;;;;;;3.20;1.30;;;6.00;91.20;;;5.08;80.86;99094.59;4988966;28;20406;-72
2023/01/15 03:58:19;;;;;;;2.95;1.35;;;6.00;91.20;;;5.08;80.25;99086.66;4988935;28;20406;-72
2023/01/15 04:00:53;;;;;;;2.58;1.10;;;6.00;91.40;;;5.07;80.84;99099.06;4989003;28;20930;-72
2023/01/15 04:03:24;;;;;;;2.80;1.15;;;6.00;91.30;;;5.06;80.68;99096.59;4988664;28;20864;-72
2023/01/15 04:05:56;;;;;;;2.45;1.10;;;6.00;91.40;;;5.08;80.86;99074.22;5002856;28;20436;-72
2023/01/15 04:08:28;;;;;;;3.03;1.25;;;6.00;91.40;;;5.08;80.96;99076.03;5008331;28;20416;-72
2023/01/15 04:11:00;;;;;;;2.22;1.20;;;6.00;91.50;;;5.07;80.57;99071.72;5008098;28;20412;-72
2023/01/15 04:13:29;;;;;;;3.80;1.48;;;6.00;91.40;;;5.09;81.02;99070.56;5008376;28;20405;-72
2023/01/15 04:16:01;;;;;;;2.38;1.50;;;6.00;91.30;;;5.08;80.69;99078.69;5008202;28;20400;-72
2023/01/15 04:18:29;;;;;;;2.10;1.00;;;6.00;91.30;;;5.09;81.01;99075.06;5008084;28;20963;-72
2023/01/15 04:21:00;;;;;;;4.63;1.40;;;6.00;91.50;;;5.09;80.81;99064.44;5008344;28;20504;-72
2023/01/15 04:23:28;;;;;;;2.78;1.48;;;6.00;91.30;;;5.09;80.58;99059.97;5008154;28;20813;-72
2023/01/15 04:25:57;;;;;;;2.85;1.45;;;6.00;91.10;;;5.12;79.90;99056.16;5007809;28;20916;-72
2023/01/15 04:28:25;;;;;;;2.28;1.30;;;6.00;91.00;;;5.11;80.29;99065.09;5008301;28;20790;-72
2023/01/15 04:30:58;;;;;;;2.80;1.30;;;6.00;90.90;;;5.11;80.39;99043.88;5008303;28;20474;-72
2023/01/15 04:33:28;;;;;;;2.80;1.35;;;6.00;91.10;;;5.09;80.42;99062.63;5008127;28;20813;-72
2023/01/15 04:35:59;;;;;;;2.80;1.27;;;6.00;91.00;;;5.10;79.54;99055.50;5007835;28;20532;-72
2023/01/15 04:38:28;;;;;;;4.40;1.50;;;6.00;91.00;;;5.11;79.37;99068.56;5008033;28;20397;-72
2023/01/15 04:46:30;;;;;;;3.97;1.70;;;6.00;91.00;;;5.09;79.90;99067.94;5007892;28;20436;-72
2023/01/15 04:49:00;;;;;;;2.28;1.33;;;6.00;91.10;;;5.11;81.08;99051.81;5007837;28;20405;-72
2023/01/15 04:51:28;;;;;;;4.15;1.83;;;6.10;91.20;;;5.15;79.77;99052.31;5008105;28;20412;-72
2023/01/15 04:53:57;;;;;;;4.38;1.60;;;6.00;90.90;;;5.12;79.81;99053.50;5014500;28;20418;-72
2023/01/15 04:56:25;;;;;;;3.10;1.50;;;6.10;90.90;;;5.11;79.83;99054.47;5027112;28;20935;-72
2023/01/15 04:58:53;;;;;;;4.15;1.50;;;6.00;91.00;;;5.12;80.81;99069.41;5029587;28;20922;-72
2023/01/15 05:01:21;;;;;;;3.22;1.40;;;6.00;91.10;;;5.12;79.92;99050.84;5031017;28;20422;-72
2023/01/15 05:03:49;;;;;;;3.13;1.53;;;6.00;90.70;;;5.19;80.05;99069.56;5031128;28;20423;-72
2023/01/15 05:06:18;;;;;;;3.58;1.65;;;6.10;91.00;;;5.15;79.80;99069.06;5030572;28;20842;-72
2023/01/15 05:08:47;;;;;;;3.23;1.50;;;6.10;90.80;;;5.12;80.10;99080.00;5030924;28;20417;-72
2023/01/15 05:11:15;;;;;;;3.13;1.50;;;6.10;90.80;;;5.12;80.09;99074.72;5031271;28;20407;-72
2023/01/15 05:13:43;;;;;;;3.40;1.50;;;6.10;90.80;;;5.16;79.91;99067.25;5030444;28;20422;-72
2023/01/15 05:16:15;;;;;;;4.20;1.60;;;6.00;90.70;;;5.12;80.05;99069.41;5031039;28;20403;-72
2023/01/15 05:18:44;;;;;;;3.80;1.80;;;6.00;90.70;;;5.16;79.82;99081.34;5030646;28;20986;-72
2023/01/15 05:21:21;;;;;;;3.42;1.80;;;6.00;90.60;;;5.15;79.55;99079.69;5030871;28;20407;-72
2023/01/15 05:23:51;;;;;;;4.38;1.90;;;6.10;90.80;;;5.15;79.95;99069.06;5030686;28;20875;-72
2023/01/15 05:26:21;;;;;;;2.88;1.70;;;6.00;90.70;;;5.17;79.27;99061.78;5030624;28;20430;-72
2023/01/15 05:28:52;;;;;;;3.83;1.90;;;6.10;90.70;;;5.14;79.49;99056.78;5030908;28;20517;-72
2023/01/15 05:31:21;;;;;;;4.32;1.90;;;6.10;90.70;;;5.12;80.09;99048.19;5030493;28;20407;-72
2023/01/15 05:33:50;;;;;;;4.35;1.90;;;6.10;90.70;;;5.11;79.89;99055.31;5030430;28;20438;-72
2023/01/15 05:36:23;;;;;;;3.57;1.70;;;6.00;90.60;;;5.13;80.22;99056.97;5030234;28;20880;-72
2023/01/15 05:38:52;;;;;;;4.75;2.00;;;6.00;90.80;;;5.10;79.88;99056.28;5022942;28;20436;-72
2023/01/15 05:44:11;;;;;;;5.72;1.80;;;6.00;90.80;;;5.10;79.32;99053.63;5009960;28;20413;-72
2023/01/15 05:46:42;;;;;;;4.20;1.80;;;6.00;90.80;;;5.13;79.38;99060.47;5010002;28;20905;-72
2023/01/15 05:49:13;;;;;;;5.28;2.08;;;6.00;90.60;;;5.15;79.44;99061.13;5010191;28;20865;-72
2023/01/15 05:51:43;;;;;;;6.50;1.80;;;6.00;90.50;;;5.15;79.06;99062.94;5010464;28;20881;-72
2023/01/15 05:54:15;;;;;;;4.35;1.60;;;6.00;90.40;;;5.13;79.45;99057.81;5018610;28;20414;-72
2023/01/15 05:56:45;;;;;;;2.33;1.42;;;6.00;90.50;;;5.11;79.26;99057.97;5030214;28;20403;-72
2023/01/15 05:59:14;;;;;;;3.70;1.63;;;6.10;90.40;;;5.12;79.34;99064.09;5030628;28;20525;-72
2023/01/15 06:01:42;;;;;;;5.22;1.85;;;6.00;90.40;;;5.09;79.49;99065.28;5011158;28;20421;-72
2023/01/15 06:04:13;;;;;;;4.47;1.70;;;6.00;90.50;;;5.09;79.21;99070.56;5010410;28;20412;-72
2023/01/15 06:06:44;;;;;;;3.50;1.83;;;6.00;90.40;;;5.09;79.68;99077.69;5009531;28;20428;-72
2023/01/15 06:09:12;;;;;;;4.82;1.80;;;6.00;90.60;;;5.09;79.52;99070.56;5010278;28;20420;-72
2023/01/15 06:11:41;;;;;;;4.65;1.80;;;6.00;90.50;;;5.09;79.24;99080.34;5010174;28;20409;-72
2023/01/15 06:14:10;;;;;;;5.68;2.20;;;6.00;90.50;;;5.07;79.41;99077.84;5009990;28;20730;-72
2023/01/15 06:16:39;;;;;;;4.38;1.90;;;6.00;90.50;;;5.09;79.97;99077.69;5009662;28;20396;-72
2023/01/15 06:19:09;;;;;;;4.70;2.00;;;6.00;90.70;;;5.10;79.24;99097.94;5009301;28;20405;-72
2023/01/15 06:21:38;;;;;;;4.78;1.92;;;6.00;90.60;;;5.13;79.46;99099.41;5009950;28;20415;-72
2023/01/15 06:24:09;;;;;;;5.80;2.20;;;6.00;90.40;;;5.13;79.16;99092.28;5009672;28;20409;-72
2023/01/15 06:26:39;;;;;;;4.55;2.00;;;6.10;90.50;;;5.15;79.51;99106.22;5009378;28;20429;-72
2023/01/15 06:29:07;;;;;;;5.80;2.40;;;6.10;90.50;;;5.14;79.53;99096.59;5010099;28;20405;-72
2023/01/15 06:31:35;;;;;;;6.53;2.20;;;6.00;90.60;;;5.18;79.20;99111.19;5018718;28;20415;-72
2023/01/15 06:34:03;;;;;;;6.95;2.28;;;6.00;90.40;;;5.17;79.87;99106.88;5022693;28;20421;-72
2023/01/15 06:36:31;;;;;;;6.20;2.05;;;6.10;90.50;;;5.14;79.42;99099.22;5009434;28;20417;-72
2023/01/15 06:38:59;;;;;;;7.63;2.28;;;6.00;90.40;;;5.16;78.79;99102.56;5008925;28;20916;-71
2023/01/15 06:47:22;;;;;;;6.07;2.20;;;6.10;90.20;;;5.15;78.44;99095.59;5009008;28;20511;-72
2023/01/15 06:49:54;;;;;;;8.45;2.80;;;6.10;90.20;;;5.20;78.50;99111.88;5009604;28;20483;-72
2023/01/15 06:52:23;;;;;;;5.45;2.63;;;6.10;90.00;;;5.22;77.69;99111.69;5009088;28;20405;-72
2023/01/15 06:54:52;;;;;;;6.27;2.70;;;6.10;89.90;;;5.24;77.78;99094.59;5009457;28;20489;-71
2023/01/15 06:57:22;;;;;;;6.70;2.53;;;6.10;89.30;;;5.24;77.52;99086.63;5008974;28;20405;-71
2023/01/15 06:59:51;;;;;;;5.78;2.63;;;6.20;89.20;;;5.26;77.68;99097.94;5009464;28;20420;-71
2023/01/15 07:02:20;;;;;;;6.85;2.30;;;6.20;89.20;;;5.29;76.54;99094.94;5009056;28;20916;-71
2023/01/15 07:04:48;;;;;;;6.35;2.35;;;6.20;88.70;;;5.29;76.58;99102.91;5009250;28;20463;-71
2023/01/15 07:07:18;;;;;;;8.25;2.30;;;6.20;88.70;;;5.29;77.22;99102.06;5008769;28;20421;-71
2023/01/15 07:09:47;;;;;;;6.75;2.45;;;6.20;88.70;;;5.26;77.35;99099.75;5008730;28;20446;-71
2023/01/15 07:12:16;;;;;;;7.15;2.50;;;6.20;88.90;;;5.24;77.26;99094.59;5008745;28;20412;-71
2023/01/15 07:14:45;;;;;;;7.50;2.63;;;6.20;88.90;;;5.27;77.47;99106.72;5008965;28;20477;-71
2023/01/15 07:17:14;;;;;;;8.40;2.50;;;6.20;88.90;;;5.28;77.12;99098.56;5008472;28;20441;-71
2023/01/15 07:19:42;;;;;;;5.47;2.20;;;6.20;88.60;;;5.26;77.04;99097.94;5009019;28;20413;-71
2023/01/15 07:22:11;;;;;;;6.35;2.90;;;6.20;88.50;;;5.24;77.06;99099.91;5008146;28;20404;-71
2023/01/15 07:24:39;;;;;;;8.57;2.88;;;6.20;88.50;;;5.24;77.90;99107.84;5008654;28;20945;-71
2023/01/15 07:27:07;;;;;;;7.15;3.65;;;6.10;89.00;;;5.25;77.71;99106.03;5008497;28;21117;-71
2023/01/15 07:29:35;;;;;;;6.30;2.65;;;6.20;88.70;;;5.26;77.31;99108.53;5008667;28;20412;-71
2023/01/15 07:32:05;;;;;;;7.80;2.65;;;6.20;88.50;;;5.28;77.04;99100.41;5009060;28;20431;-71
2023/01/15 07:34:33;;;;;;;8.20;2.80;;;6.20;88.50;;;5.27;77.31;99107.56;5022562;28;20410;-71
2023/01/15 07:37:01;;;;;;;6.53;2.70;;;6.20;88.80;;;5.26;77.26;99113.84;5027963;28;20421;-72
2023/01/15 07:39:30;;;;;;;5.05;2.42;;;6.20;88.80;;;5.24;76.99;99105.22;5028491;28;20415;-72
2023/01/15 07:50:20;;;;;;;5.55;2.40;;;6.20;88.10;;;5.28;76.21;99111.84;5028115;28;20403;-72
2023/01/15 07:52:48;;;;;;;7.77;2.50;;;6.20;87.70;;;5.25;76.64;99100.72;5028095;28;20494;-72
2023/01/15 07:55:20;;;;;;;6.75;2.55;;;6.10;87.80;;;5.24;76.87;99102.56;5010023;28;20408;-72
2023/01/15 07:57:49;;;;;;;7.78;2.55;;;6.20;89.00;;;5.23;76.20;99119.50;5006810;28;20463;-72
2023/01/15 08:00:22;;;;;;;6.18;2.45;;;6.10;87.80;;;5.28;76.08;99111.84;5008028;28;20415;-72
2023/01/15 08:02:52;;;;;;;6.68;2.30;;;6.20;87.50;;;5.25;76.46;99106.88;5008285;28;20415;-72
2023/01/15 08:05:20;;;;;;;7.00;2.53;;;6.20;87.60;;;5.26;76.52;99119.16;5008312;28;20487;-72
2023/01/15 08:07:49;;;;;;;6.43;2.53;;;6.20;87.70;;;5.31;75.88;99116.81;5007571;28;20432;-71
2023/01/15 08:10:18;;;;;;;7.60;2.70;;;6.20;87.30;;;5.29;75.67;99118.81;5008420;28;20404;-71
2023/01/15 08:15:42;;;;;;;6.55;2.40;;;6.20;87.30;;;5.31;75.91;99114.16;5008015;28;20805;-71
2023/01/15 08:18:12;;;;;;;6.95;2.58;;;6.20;88.10;;;5.31;76.14;99116.81;5007805;28;20411;-71
2023/01/15 08:20:40;;;;;;;6.57;2.33;;;6.30;88.10;;;5.32;75.87;99107.88;5007956;28;20410;-71
2023/01/15 08:23:09;;;;;;;9.55;2.70;;;6.20;86.80;;;5.36;75.71;99111.84;5008235;28;20404;-71
2023/01/15 08:25:37;;;;;;;6.40;2.60;;;6.30;86.70;;;5.38;75.34;99112.50;5007402;28;20931;-71
2023/01/15 08:28:05;;;;;;;5.75;2.35;;;6.30;86.40;;;5.36;75.29;99105.72;5007862;28;20428;-71
2023/01/15 08:30:33;;;;;;;9.32;2.75;;;6.30;86.40;;;5.39;75.25;99100.06;5008259;28;20408;-71
2023/01/15 08:33:02;;;;;;;6.35;2.50;;;6.30;86.30;;;5.39;75.25;99100.06;5009789;28;20754;-71
2023/01/15 08:35:33;;;;;;;6.80;2.30;;;6.30;86.40;;;5.37;75.62;99110.88;5031408;28;20402;-71
2023/01/15 08:38:05;;;;;;;9.40;2.97;;;6.30;86.70;;;5.34;76.03;99105.88;5030963;28;20403;-71
2023/01/15 08:40:35;;;;;;;7.75;2.50;;;6.30;87.10;;;5.38;75.41;99107.19;5031608;28;20409;-71
2023/01/15 08:43:03;;;;;;;8.57;2.60;;;6.30;86.40;;;5.44;74.70;99119.81;5031043;28;20756;-72
2023/01/15 08:45:31;;;;;;;6.50;2.30;;;6.30;85.60;;;5.41;74.78;99122.78;5031332;28;20460;-70
2023/01/15 08:47:59;;;;;;;9.20;3.38;;;6.30;86.00;;;5.42;74.63;99113.81;5031253;28;20681;-71
2023/01/15 08:50:27;;;;;;;8.73;2.77;;;6.40;85.90;;;5.43;75.34;99123.47;5031309;28;20406;-71
2023/01/15 08:52:57;;;;;;;9.43;3.08;;;6.30;86.10;;;5.50;74.53;99126.28;5031568;28;20406;-71
2023/01/15 08:55:25;;;;;;;7.50;3.00;;;6.40;85.40;;;5.47;74.58;99126.59;5012521;28;20425;-71
2023/01/15 08:57:53;;;;;;;9.50;3.38;;;6.40;85.50;;;5.47;74.94;99126.59;5010012;28;20408;-71
2023/01/15 09:00:23;;;;;;;9.60;3.30;;;6.40;85.90;;;5.47;74.96;99122.13;5014336;28;20414;-72
2023/01/15 09:02:52;;;;;;;8.65;2.88;;;6.40;85.90;;;5.49;74.83;99122.78;5030985;28;20403;-72
2023/01/15 09:05:20;;;;;;;8.23;2.67;;;6.40;85.60;;;5.53;73.75;99121.47;5027103;28;20418;-72
2023/01/15 09:07:48;;;;;;;8.25;3.28;;;6.40;84.50;;;5.48;73.37;99121.13;5011472;28;20451;-71
2023/01/15 09:10:18;;;;;;;8.75;2.67;;;6.40;84.60;;;5.49;73.68;99106.03;5008998;28;20743;-71
2023/01/15 09:12:46;;;;;;;8.65;2.90;;;6.40;84.50;;;5.48;74.45;99126.44;5004986;28;20417;-71
2023/01/15 09:15:14;;;;;;;8.65;2.97;;;6.40;84.50;;;5.45;73.66;99126.75;5010479;28;20817;-72
2023/01/15 09:17:42;;;;;;;7.57;2.70;;;6.40;84.60;;;5.44;74.01;99121.63;5010983;28;20413;-72
2023/01/15 09:20:15;;;;;;;7.95;2.95;;;6.30;84.70;;;5.47;72.84;99122.13;5010018;28;21189;-72
2023/01/15 09:22:43;;;;;;;5.93;2.65;;;6.40;84.00;;;5.46;73.86;99136.41;5010552;28;20408;-71
2023/01/15 09:25:11;;;;;;;7.57;3.22;;;6.40;84.50;;;5.48;73.30;99145.00;5024214;28;20415;-71
2023/01/15 09:27:41;;;;;;;10.73;6.47;;;6.40;83.90;;;5.47;73.68;99150.50;5029884;28;20461;-72
2023/01/15 09:30:17;;;;;;;13.38;8.10;;;6.40;84.30;;;5.52;73.13;99141.03;5030280;28;20403;-71
2023/01/15 09:32:45;;;;;;;19.30;15.63;;;6.40;83.60;;;5.51;73.41;99144.66;5030054;28;20790;-71
2023/01/15 09:35:13;;;;;;;29.80;21.48;;;6.40;83.80;;;5.54;72.84;99154.97;5030441;28;20410;-71
2023/01/15 09:37:41;;;;;;;11.52;5.28;;;6.40;83.30;;;5.52;74.06;99143.69;5030128;28;20414;-72
2023/01/15 09:40:43;;;;;;;14.23;9.43;;;6.40;84.80;;;5.50;73.09;99151.00;5030120;28;20407;-72
2023/01/15 09:43:29;;;;;;;9.30;4.78;;;6.40;84.00;;;5.52;73.00;99143.69;5030104;28;20411;-72
2023/01/15 09:46:08;;;;;;;9.80;3.95;;;6.40;83.70;;;5.54;72.55;99143.53;5029214;28;21116;-72
2023/01/15 09:48:54;;;;;;;8.13;3.83;;;6.40;83.30;;;5.54;73.73;99144.38;5030082;28;20423;-72
2023/01/15 09:51:36;;;;;;;10.07;3.67;;;6.40;84.10;;;5.54;73.00;99144.38;5030117;28;20399;-72
2023/01/15 09:54:23;;;;;;;10.15;5.35;;;6.50;83.80;;;5.59;72.32;99151.81;5029812;28;20399;-72
2023/01/15 09:56:51;;;;;;;42.25;23.63;;;6.50;83.20;;;5.57;72.43;99146.69;5029703;28;20916;-72
2023/01/15 09:59:33;;;;;;;13.23;7.00;;;6.50;83.20;;;5.59;71.99;99142.03;5029720;28;20403;-72
2023/01/15 10:02:16;;;;;;;11.23;4.80;;;6.60;83.10;;;5.63;72.07;99137.19;5013770;28;20463;-71
2023/01/15 10:04:55;;;;;;;8.15;3.30;;;6.50;82.40;;;5.61;72.23;99128.59;5009396;28;20401;-72
2023/01/15 10:07:33;;;;;;;11.70;4.70;;;6.50;82.90;;;5.58;72.09;99132.38;5009699;28;20411;-72
2023/01/15 10:10:09;;;;;;;7.18;2.80;;;6.50;82.90;;;5.60;71.07;99119.78;5009543;28;20421;-72
2023/01/15 10:12:39;;;;;;;8.27;3.15;;;6.50;82.20;;;5.60;71.84;99111.81;4999938;28;20477;-71
2023/01/15 10:15:24;;;;;;;7.38;2.95;;;6.50;82.00;;;5.60;71.61;99134.88;5009165;28;20440;-72
2023/01/15 10:17:55;;;;;;;5.78;2.40;;;6.50;82.20;;;5.70;70.30;99129.41;4989705;28;20414;-73
2023/01/15 10:20:53;;;;;;;6.82;2.72;;;6.60;80.70;;;5.69;69.51;99135.69;4990339;28;20399;-64
2023/01/15 10:23:35;;;;;;;6.15;2.08;;;6.60;80.40;;;5.70;69.30;99129.41;4989549;28;20415;-72
2023/01/15 10:26:17;;;;;;;8.27;2.40;;;6.60;79.30;;;5.74;69.00;99128.06;4990212;28;20410;-73
2023/01/15 10:29:03;;;;;;;5.10;2.10;;;6.60;78.80;;;5.81;68.65;99142.31;4989536;28;21110;-72
2023/01/15 10:31:50;;;;;;;4.88;2.05;;;6.70;79.30;;;5.86;68.17;99158.59;4990048;28;20846;-72
2023/01/15 10:35:07;;;;;;;5.30;2.00;;;6.70;78.60;;;5.87;69.07;99154.97;5013267;28;20407;-72
2023/01/15 10:37:43;;;;;;;5.20;2.00;;;6.70;78.80;;;5.87;68.65;99168.25;5028822;28;20945;-72
2023/01/15 10:40:37;;;;;;;3.90;1.95;;;6.70;78.80;;;5.84;69.40;99168.53;5029300;28;20399;-72
2023/01/15 10:43:19;;;;;;;5.88;2.03;;;6.70;79.50;;;5.77;70.15;99159.59;5028135;28;20416;-73
2023/01/15 10:45:52;;;;;;;6.67;2.00;;;6.70;80.30;;;5.74;70.47;99158.09;5028766;28;20775;-73
2023/01/15 10:48:33;;;;;;;7.85;2.00;;;6.60;81.10;;;5.69;71.26;99162.25;5028572;28;20498;-73
2023/01/15 10:51:12;;;;;;;4.53;1.85;;;6.60;81.10;;;5.63;71.29;99161.94;5028678;28;20414;-73
2023/01/15 10:53:51;;;;;;;4.35;1.80;;;6.50;81.20;;;5.57;71.51;99164.44;5028733;28;20860;-73
2023/01/15 10:56:33;;;;;;;5.40;2.20;;;6.50;82.70;;;5.56;71.85;99157.44;5027784;28;21014;-73
2023/01/15 10:59:15;;;;;;;5.53;1.95;;;6.50;82.20;;;5.55;71.98;99156.63;5028155;28;20403;-74
2023/01/15 11:01:43;;;;;;;5.80;2.10;;;6.50;82.60;;;5.53;71.24;99153.31;5014530;28;20466;-73
2023/01/15 11:04:13;;;;;;;5.22;2.33;;;6.40;81.80;;;5.54;71.24;99139.06;5009139;28;20459;-73
2023/01/15 11:06:42;;;;;;;6.35;1.98;;;6.50;82.20;;;5.55;71.27;99124.75;5007882;28;20416;-73
2023/01/15 11:09:22;;;;;;;4.35;2.20;;;6.50;82.10;;;5.59;71.32;99149.97;5008808;28;20429;-73
2023/01/15 11:20:33;;;;;;;6.85;2.35;;;6.60;82.00;;;5.81;71.28;99142.31;5008339;28;20963;-73
2023/01/15 11:23:09;;;;;;;4.90;2.00;;;6.70;81.60;;;5.81;71.38;99134.38;5008681;28;20915;-73
2023/01/15 11:25:47;;;;;;;5.32;2.42;;;6.70;81.40;;;5.84;71.29;99126.06;5008106;28;20808;-73
2023/01/15 11:28:16;;;;;;;4.90;2.20;;;6.70;81.70;;;5.85;70.36;99122.41;5008635;28;20436;-73
2023/01/15 11:30:55;;;;;;;6.88;2.53;;;6.80;80.90;;;5.86;70.60;99124.06;5008384;28;20427;-73
2023/01/15 11:33:26;;;;;;;7.47;2.60;;;6.70;81.50;;;5.88;70.43;99114.13;5013119;28;20434;-73
2023/01/15 11:35:59;;;;;;;7.75;2.67;;;6.80;80.70;;;5.90;69.74;99112.94;5026678;28;20403;-74